Aeroporto :
LOGIN :

Iscrizione | Disclaimer

   EN    FR    IT 

 










Sommario :    VFR   VFR Marginale   IFR   IFR Intensivo   IFR Molto Intensivo
Visibilità : 
Base nubi : 
>= 8 km
>= 3000ft
5 / 8 km
1000 / 3000 ft
1500m / 5 km
500 / 1000 ft
800 / 1500m
200 / 500 ft
< 800m
< 200 ft
Simboli :   Temporali  Nebbia  Neve Forte  Precipitazioni Forti  Vento > 20 kt
SIGMETs :   Varie  Temporali  Ghiacco  Turbolenza  Onda orograficha  Ceneri Vulcaniche






- Altitudine del aeroporto : 13 ft
- Codice IATA : SNR


LFRZ - St-Nazaire

ULTIMO METAR :
  • 200800Z AUTO 03010KT CAVOK 02/01 Q1045 NOSIG

METARs OBSOLETI :
  • 200730Z AUTO 03009KT CAVOK 02/01 Q1045 NOSIG
  • 200700Z AUTO 03009KT CAVOK 02/01 Q1044 NOSIG
  • 200630Z AUTO 03010KT CAVOK 03/01 Q1044 NOSIG
  • 200600Z AUTO 03009KT CAVOK 03/01 Q1044 NOSIG
  • 200530Z AUTO 04010KT CAVOK 03/01 Q1044 NOSIG

TAF TAF LFRZ
Valido dal 20 a 06 ore il 21 a 06 ore UTC


200500Z 2006/2106 03010KT CAVOK
TEMPO 2012/2016 04015G25KT
BECMG 2022/2024 BKN012



MetMap, La meteo Aeronautica in un colpo d'occhio ! - Copyright ORBIFLY Dicembre 2007 - Disclaimer

ORBIFLY MET'MAP TEAM :

Programmazione e sviluppo : Alexandra Zaïnal
Concezione : Baudouin d'Aumeries
Aiuto per la programmazione : Marc-Olivier Méhu
Supporto tecnico e logistico : Manuel Goepfert
Aiuto per la traduzione : Arnaldo La Scala

Contatto : metmap@orbifly.com




FONTI E CREDITI :

   NOAA